createdAt,value
2018-11-07T00:01:22.655Z,90.60
2018-11-07T00:04:00.760Z,90.60
2018-11-07T00:06:34.933Z,90.60
2018-11-07T00:09:04.230Z,90.70
2018-11-07T00:11:39.030Z,90.90
2018-11-07T00:14:19.368Z,90.90
2018-11-07T00:16:48.180Z,90.90
2018-11-07T00:19:16.722Z,91.10
2018-11-07T00:21:51.854Z,91.20
2018-11-07T00:24:20.309Z,91.10
2018-11-07T00:26:56.893Z,91.10
2018-11-07T00:29:33.081Z,91.20
2018-11-07T00:32:07.582Z,91.30
2018-11-07T00:34:48.097Z,91.30
2018-11-07T00:37:22.173Z,91.40
2018-11-07T00:39:57.757Z,91.40
2018-11-07T00:42:31.749Z,91.40
2018-11-07T00:45:00.305Z,91.20
2018-11-07T00:47:29.197Z,91.10
2018-11-07T00:50:00.896Z,90.80
2018-11-07T00:52:29.419Z,90.70
2018-11-07T00:54:58.117Z,90.80
2018-11-07T00:57:26.623Z,90.90
2018-11-07T00:59:55.139Z,91.00
2018-11-07T01:02:37.127Z,91.30
2018-11-07T01:05:06.648Z,91.40
2018-11-07T01:07:43.279Z,91.50
2018-11-07T01:10:21.642Z,91.60
2018-11-07T01:12:53.368Z,91.50
2018-11-07T01:15:34.240Z,91.50
2018-11-07T01:18:15.307Z,91.50
2018-11-07T01:20:55.841Z,91.50
2018-11-07T01:23:34.120Z,91.60
2018-11-07T01:26:03.453Z,91.60
2018-11-07T01:28:38.040Z,91.60
2018-11-07T01:31:12.252Z,91.60
2018-11-07T01:33:40.847Z,91.60
2018-11-07T01:36:09.489Z,91.40
2018-11-07T01:38:45.845Z,91.30
2018-11-07T01:41:18.023Z,91.20
2018-11-07T01:43:51.920Z,91.20
2018-11-07T01:46:30.383Z,91.20
2018-11-07T01:49:04.932Z,91.30
2018-11-07T01:51:45.780Z,91.20
2018-11-07T01:54:24.232Z,91.30
2018-11-07T01:56:52.772Z,91.40
2018-11-07T02:02:23.904Z,91.50
2018-11-07T02:04:59.550Z,91.60
2018-11-07T02:07:33.806Z,91.50
2018-11-07T02:10:12.148Z,91.50
2018-11-07T02:12:43.806Z,91.50
2018-11-07T02:15:16.060Z,91.50
2018-11-07T02:17:44.656Z,91.50
2018-11-07T02:20:13.207Z,91.50
2018-11-07T02:22:53.870Z,91.60
2018-11-07T02:25:22.517Z,91.60
2018-11-07T02:27:51.041Z,91.80
2018-11-07T02:30:19.674Z,91.90
2018-11-07T02:32:48.183Z,92.40
2018-11-07T02:35:20.655Z,92.10
2018-11-07T02:37:49.185Z,92.20
2018-11-07T02:40:17.851Z,92.20
2018-11-07T02:42:46.458Z,92.10
2018-11-07T02:45:21.323Z,92.00
2018-11-07T02:47:52.878Z,91.90
2018-11-07T02:50:21.997Z,91.90
2018-11-07T02:53:04.857Z,91.80
2018-11-07T02:55:33.362Z,91.70
2018-11-07T02:58:11.159Z,91.60
2018-11-07T03:00:43.220Z,91.60
2018-11-07T03:03:22.738Z,91.60
2018-11-07T03:06:02.465Z,91.40
2018-11-07T03:08:44.200Z,91.20
2018-11-07T03:11:16.841Z,91.20
2018-11-07T03:13:45.790Z,91.10
2018-11-07T03:16:27.032Z,91.20
2018-11-07T03:18:59.060Z,91.20
2018-11-07T03:21:27.614Z,91.40
2018-11-07T03:23:56.254Z,91.60
2018-11-07T03:26:31.186Z,91.60
2018-11-07T03:29:11.512Z,91.80
2018-11-07T03:31:45.497Z,91.90
2018-11-07T03:34:19.530Z,92.00
2018-11-07T03:36:53.890Z,92.10
2018-11-07T03:39:28.094Z,92.00
2018-11-07T03:42:02.092Z,91.90
2018-11-07T03:44:31.219Z,91.70
2018-11-07T03:47:05.345Z,91.60
2018-11-07T03:49:36.993Z,91.50
2018-11-07T03:52:13.088Z,91.40
2018-11-07T03:54:47.408Z,91.50
2018-11-07T03:57:22.037Z,91.40
2018-11-07T03:59:58.002Z,91.50
2018-11-07T04:02:26.561Z,91.50
2018-11-07T04:05:01.121Z,91.90
2018-11-07T04:10:35.087Z,91.60
2018-11-07T04:13:15.967Z,91.70
2018-11-07T04:15:50.237Z,91.70
2018-11-07T04:18:26.559Z,91.70
2018-11-07T04:21:01.308Z,91.70
2018-11-07T04:23:39.424Z,91.70
2018-11-07T04:26:20.020Z,91.60
2018-11-07T04:28:56.341Z,91.70
2018-11-07T04:31:34.483Z,91.80
2018-11-07T04:34:08.858Z,92.00
2018-11-07T04:36:49.866Z,92.20
2018-11-07T04:39:23.888Z,92.40
2018-11-07T04:41:58.418Z,92.50
2018-11-07T04:44:34.801Z,92.70
2018-11-07T04:47:13.191Z,92.90
2018-11-07T04:49:47.931Z,93.00
2018-11-07T04:52:20.075Z,93.00
2018-11-07T04:54:55.641Z,93.00
2018-11-07T04:57:31.001Z,92.90
2018-11-07T05:00:06.157Z,92.90
2018-11-07T05:02:41.503Z,93.00
2018-11-07T05:05:13.828Z,93.10
2018-11-07T05:07:46.766Z,93.10
2018-11-07T05:10:25.210Z,93.10
2018-11-07T05:12:59.424Z,93.10
2018-11-07T05:15:33.686Z,93.20
2018-11-07T05:18:08.354Z,93.10
2018-11-07T05:20:38.587Z,93.00
2018-11-07T05:23:16.834Z,93.00
2018-11-07T05:25:51.172Z,93.10
2018-11-07T05:28:31.480Z,93.30
2018-11-07T05:31:07.963Z,93.40
2018-11-07T05:33:42.511Z,93.50
2018-11-07T05:36:18.748Z,93.50
2018-11-07T05:38:54.224Z,93.40
2018-11-07T05:41:30.539Z,93.20
2018-11-07T05:44:05.043Z,93.10
2018-11-07T05:46:39.511Z,93.20
2018-11-07T05:49:14.523Z,93.30
2018-11-07T05:51:55.408Z,93.40
2018-11-07T05:54:29.384Z,93.30
2018-11-07T05:57:04.211Z,93.30
2018-11-07T05:59:40.360Z,93.40
2018-11-07T06:02:18.589Z,93.50
2018-11-07T06:04:52.945Z,93.70
2018-11-07T06:07:33.565Z,93.80
2018-11-07T06:10:09.773Z,94.00
2018-11-07T06:12:46.510Z,94.10
2018-11-07T06:15:18.767Z,94.20
2018-11-07T06:17:53.183Z,94.20
2018-11-07T06:20:28.524Z,94.10
2018-11-07T06:23:02.956Z,94.00
2018-11-07T06:25:34.862Z,93.90
2018-11-07T06:28:15.164Z,93.80
2018-11-07T06:30:50.030Z,93.80
2018-11-07T06:33:26.659Z,93.80
2018-11-07T06:36:01.994Z,93.80
2018-11-07T06:38:33.854Z,93.80
2018-11-07T06:41:06.058Z,93.80
2018-11-07T06:43:41.760Z,93.70
2018-11-07T06:46:17.994Z,93.60
2018-11-07T06:48:52.718Z,93.60
2018-11-07T06:51:23.284Z,93.60
2018-11-07T06:53:57.270Z,93.60
2018-11-07T06:56:31.475Z,93.50
2018-11-07T06:59:05.951Z,93.50
2018-11-07T07:01:40.746Z,93.30
2018-11-07T07:04:14.977Z,93.40
2018-11-07T07:06:49.633Z,93.40
2018-11-07T07:09:24.397Z,93.50
2018-11-07T07:12:00.983Z,93.30
2018-11-07T07:14:34.863Z,93.20
2018-11-07T07:17:11.508Z,93.20
2018-11-07T07:19:49.882Z,93.10
2018-11-07T07:22:30.599Z,93.00
2018-11-07T07:25:06.625Z,92.90
2018-11-07T07:27:41.315Z,92.80
2018-11-07T07:30:19.441Z,92.50
2018-11-07T07:32:55.592Z,92.20
2018-11-07T07:35:29.528Z,91.90
2018-11-07T07:38:03.780Z,91.70
2018-11-07T07:40:40.199Z,91.30
2018-11-07T07:43:14.100Z,90.70
2018-11-07T07:45:49.444Z,89.90
2018-11-07T07:48:23.902Z,84.00
2018-11-07T07:51:04.406Z,76.90
2018-11-07T07:53:40.508Z,73.20
2018-11-07T07:56:12.657Z,68.90
2018-11-07T07:58:45.148Z,68.80
2018-11-07T08:01:22.044Z,64.80
2018-11-07T08:04:08.357Z,63.80
2018-11-07T08:06:42.317Z,66.90
2018-11-07T08:09:16.354Z,68.30
2018-11-07T08:11:50.379Z,66.10
2018-11-07T08:14:28.676Z,61.20
2018-11-07T08:17:03.467Z,60.30
2018-11-07T08:19:39.491Z,62.30
2018-11-07T08:22:13.589Z,67.60
2018-11-07T08:24:51.755Z,70.00
2018-11-07T08:27:21.313Z,65.60
2018-11-07T08:29:55.827Z,60.10
2018-11-07T08:32:34.322Z,58.10
2018-11-07T08:35:07.479Z,57.70
2018-11-07T08:37:38.684Z,57.30
2018-11-07T08:40:19.916Z,56.80
2018-11-07T08:42:53.760Z,54.30
2018-11-07T08:45:22.407Z,53.20
2018-11-07T08:47:57.124Z,51.60
2018-11-07T08:50:28.801Z,55.10
2018-11-07T08:53:03.370Z,58.40
2018-11-07T08:55:38.557Z,62.10
2018-11-07T08:58:12.555Z,58.80
2018-11-07T09:00:49.272Z,59.10
2018-11-07T09:03:17.834Z,59.60
2018-11-07T09:05:46.468Z,59.40
2018-11-07T09:08:15.019Z,57.30
2018-11-07T09:10:50.280Z,57.60
2018-11-07T09:13:26.410Z,58.70
2018-11-07T09:16:02.468Z,61.60
2018-11-07T09:18:36.672Z,65.40
2018-11-07T09:21:10.492Z,68.40
2018-11-07T09:23:39.116Z,70.40
2018-11-07T09:26:14.358Z,71.60
2018-11-07T09:28:48.358Z,72.10
2018-11-07T09:31:22.387Z,73.80
2018-11-07T09:33:51.864Z,73.00
2018-11-07T09:39:43.743Z,74.10
2018-11-07T09:42:28.887Z,74.30
2018-11-07T09:45:25.941Z,73.70
2018-11-07T09:48:00.694Z,73.30
2018-11-07T09:50:40.977Z,72.30
2018-11-07T09:53:13.397Z,71.60
2018-11-07T09:55:50.029Z,71.50
2018-11-07T09:58:19.567Z,71.40
2018-11-07T10:01:00.101Z,71.10
2018-11-07T10:03:38.553Z,70.90
2018-11-07T10:06:07.177Z,70.40
2018-11-07T10:08:35.685Z,70.80
2018-11-07T10:11:04.316Z,71.90
2018-11-07T10:13:32.883Z,72.10
2018-11-07T10:16:02.483Z,72.40
2018-11-07T10:18:38.609Z,72.40
2018-11-07T10:21:14.991Z,72.00
2018-11-07T10:23:43.587Z,72.00
2018-11-07T10:26:12.058Z,72.10
2018-11-07T10:28:40.807Z,71.80
2018-11-07T10:31:09.878Z,72.00
2018-11-07T10:33:38.444Z,72.00
2018-11-07T10:36:06.894Z,72.40
2018-11-07T10:38:41.505Z,72.50
2018-11-07T10:41:17.694Z,72.30
2018-11-07T10:43:54.517Z,72.20
2018-11-07T10:46:23.542Z,72.90
2018-11-07T10:48:52.095Z,72.50
2018-11-07T10:51:20.690Z,72.00
2018-11-07T10:53:49.242Z,71.70
2018-11-07T10:56:17.784Z,72.50
2018-11-07T10:58:52.820Z,72.80
2018-11-07T11:01:26.706Z,72.60
2018-11-07T11:03:55.213Z,72.60
2018-11-07T11:06:23.843Z,72.90
2018-11-07T11:08:52.473Z,72.80
2018-11-07T11:11:21.172Z,72.50
2018-11-07T11:13:49.580Z,72.30
2018-11-07T11:16:18.211Z,72.20
2018-11-07T11:18:46.699Z,71.90
2018-11-07T11:21:15.289Z,71.50
2018-11-07T11:23:43.826Z,71.20
2018-11-07T11:26:12.361Z,71.10
2018-11-07T11:28:40.932Z,70.70
2018-11-07T11:31:15.100Z,70.90
2018-11-07T11:33:47.029Z,70.50
2018-11-07T11:36:16.575Z,70.80
2018-11-07T11:38:45.048Z,71.30
2018-11-07T11:41:13.696Z,71.40
2018-11-07T11:43:42.882Z,70.50
2018-11-07T11:46:11.443Z,70.10
2018-11-07T11:48:40.157Z,70.10
2018-11-07T11:51:08.823Z,69.70
2018-11-07T11:53:42.733Z,68.20
2018-11-07T11:56:19.491Z,68.10
2018-11-07T11:58:53.689Z,67.60
2018-11-07T12:01:23.210Z,67.30
2018-11-07T12:03:51.715Z,66.40
2018-11-07T12:06:25.844Z,66.40
2018-11-07T12:08:54.361Z,66.50
2018-11-07T12:11:30.174Z,66.70
2018-11-07T12:14:08.247Z,66.80
2018-11-07T12:16:46.430Z,67.10
2018-11-07T12:19:22.402Z,67.50
2018-11-07T12:22:00.583Z,67.50
2018-11-07T12:24:29.076Z,67.70
2018-11-07T12:27:07.536Z,66.70
2018-11-07T12:29:41.804Z,67.10
2018-11-07T12:32:16.474Z,67.20
2018-11-07T12:34:50.900Z,67.80
2018-11-07T12:37:28.484Z,68.40
2018-11-07T12:40:03.240Z,68.50
2018-11-07T12:42:41.574Z,67.80
2018-11-07T12:45:16.626Z,68.00
2018-11-07T12:47:48.923Z,68.00
2018-11-07T12:50:25.633Z,67.90
2018-11-07T12:53:04.111Z,67.60
2018-11-07T12:55:40.591Z,67.90
2018-11-07T13:01:14.781Z,67.60
2018-11-07T13:03:52.842Z,68.20
2018-11-07T13:06:27.521Z,68.30
2018-11-07T13:09:01.845Z,68.50
2018-11-07T13:11:36.331Z,68.80
2018-11-07T13:14:05.195Z,69.20
2018-11-07T13:16:43.513Z,69.20
2018-11-07T13:19:19.505Z,69.20
2018-11-07T13:21:58.119Z,68.70
2018-11-07T13:24:34.217Z,68.40
2018-11-07T13:27:09.009Z,68.30
2018-11-07T13:29:38.596Z,68.90
2018-11-07T13:32:16.829Z,69.10
2018-11-07T13:34:58.031Z,69.70
2018-11-07T13:37:36.155Z,69.80
2018-11-07T13:40:16.073Z,70.10
2018-11-07T13:42:45.700Z,70.60
2018-11-07T13:45:22.516Z,71.10
2018-11-07T13:47:56.725Z,71.10
2018-11-07T13:50:31.970Z,71.70
2018-11-07T13:53:08.694Z,71.20
2018-11-07T13:55:49.772Z,71.60
2018-11-07T13:58:18.375Z,71.90
2018-11-07T14:00:46.918Z,71.70
2018-11-07T14:03:15.576Z,71.80
2018-11-07T14:05:51.392Z,71.90
2018-11-07T14:08:25.612Z,72.40
2018-11-07T14:10:55.130Z,72.70
2018-11-07T14:13:23.612Z,72.90
2018-11-07T14:15:52.235Z,73.50
2018-11-07T14:18:20.732Z,74.00
2018-11-07T14:20:49.327Z,75.40
2018-11-07T14:23:17.925Z,75.30
2018-11-07T14:25:52.263Z,76.20
2018-11-07T14:28:21.033Z,77.40
2018-11-07T14:30:49.353Z,77.20
2018-11-07T14:33:19.221Z,77.80
2018-11-07T14:40:01.953Z,82.30
2018-11-07T14:42:30.448Z,83.50
2018-11-07T14:45:05.163Z,84.30
2018-11-07T14:47:41.678Z,84.50
2018-11-07T14:50:10.974Z,83.90
2018-11-07T14:52:39.497Z,83.00
2018-11-07T14:55:08.733Z,82.50
2018-11-07T14:57:37.476Z,81.80
2018-11-07T15:00:11.218Z,80.90
2018-11-07T15:02:40.321Z,80.30
2018-11-07T15:05:10.486Z,79.90
2018-11-07T15:07:39.294Z,79.50
2018-11-07T15:10:09.104Z,79.10
2018-11-07T15:12:37.701Z,78.80
2018-11-07T15:15:07.658Z,78.50
2018-11-07T15:17:36.188Z,78.30
2018-11-07T15:20:04.816Z,78.10
2018-11-07T15:22:33.415Z,78.00
2018-11-07T15:25:01.975Z,78.00
2018-11-07T15:27:30.422Z,77.80
2018-11-07T15:29:59.050Z,77.80
2018-11-07T15:32:27.569Z,77.60
2018-11-07T15:34:56.071Z,77.30
2018-11-07T15:37:24.743Z,77.00
2018-11-07T15:39:53.263Z,76.50
2018-11-07T15:42:22.500Z,76.00
2018-11-07T15:44:50.984Z,75.70
2018-11-07T15:47:19.535Z,75.60
2018-11-07T15:50:52.022Z,75.50
2018-11-07T15:53:20.649Z,75.20
2018-11-07T15:55:49.159Z,75.00
2018-11-07T15:58:17.776Z,74.90
2018-11-07T16:00:46.647Z,74.80
2018-11-07T16:03:23.747Z,74.70
2018-11-07T16:05:52.270Z,74.70
2018-11-07T16:08:21.119Z,74.60
2018-11-07T16:10:53.549Z,74.50
2018-11-07T16:13:22.159Z,74.30
2018-11-07T16:15:56.467Z,74.50
2018-11-07T16:18:25.057Z,74.40
2018-11-07T16:20:55.686Z,74.40
2018-11-07T16:23:24.331Z,74.40
2018-11-07T16:25:52.892Z,75.30
2018-11-07T16:28:21.422Z,74.10
2018-11-07T16:31:06.918Z,74.00
2018-11-07T16:33:35.448Z,74.00
2018-11-07T16:36:04.560Z,74.10
2018-11-07T16:38:33.080Z,74.50
2018-11-07T16:41:01.631Z,74.20
2018-11-07T16:43:30.054Z,74.10
2018-11-07T16:46:04.915Z,75.00
2018-11-07T16:48:33.504Z,74.20
2018-11-07T16:51:01.958Z,74.30
2018-11-07T16:53:30.455Z,74.00
2018-11-07T16:55:59.054Z,73.70
2018-11-07T16:58:27.554Z,73.40
2018-11-07T17:00:56.079Z,73.10
2018-11-07T17:03:24.496Z,73.30
2018-11-07T17:06:05.916Z,73.20
2018-11-07T17:08:34.472Z,73.00
2018-11-07T17:11:03.020Z,72.80
2018-11-07T17:13:31.781Z,72.20
2018-11-07T17:16:07.672Z,71.80
2018-11-07T17:18:37.466Z,71.70
2018-11-07T17:21:12.222Z,71.40
2018-11-07T17:23:45.093Z,71.10
2018-11-07T17:26:14.440Z,71.00
2018-11-07T17:28:42.914Z,70.70
2018-11-07T17:31:26.514Z,70.60
2018-11-07T17:33:57.649Z,70.50
2018-11-07T17:36:28.439Z,70.40
2018-11-07T17:38:57.079Z,70.50
2018-11-07T17:41:25.723Z,70.40
2018-11-07T17:43:55.456Z,70.30
2018-11-07T17:46:24.005Z,70.40
2018-11-07T17:48:52.557Z,70.40
2018-11-07T17:51:21.148Z,70.30
2018-11-07T17:53:50.781Z,70.20
2018-11-07T17:59:28.159Z,69.60
2018-11-07T18:01:56.879Z,69.70
2018-11-07T18:04:25.327Z,69.80
2018-11-07T18:06:53.783Z,69.60
2018-11-07T18:09:22.331Z,69.50
2018-11-07T18:11:50.853Z,69.50
2018-11-07T18:14:19.342Z,69.30
2018-11-07T18:16:49.897Z,69.20
2018-11-07T18:19:18.512Z,69.10
2018-11-07T18:21:46.987Z,69.20
2018-11-07T18:24:15.486Z,69.50
2018-11-07T18:26:44.047Z,69.70
2018-11-07T18:29:26.693Z,70.00
2018-11-07T18:31:58.448Z,70.40
2018-11-07T18:34:30.235Z,70.40
2018-11-07T18:37:06.860Z,70.30
2018-11-07T18:39:54.644Z,70.50
2018-11-07T18:46:02.438Z,70.30
2018-11-07T18:51:14.710Z,71.00
2018-11-07T18:53:46.697Z,70.40
2018-11-07T18:56:15.271Z,70.40
2018-11-07T18:58:44.228Z,70.60
2018-11-07T19:01:14.332Z,70.90
2018-11-07T19:03:53.021Z,70.90
2018-11-07T19:06:22.170Z,70.80
2018-11-07T19:08:50.678Z,70.70
2018-11-07T19:11:37.610Z,70.70
2018-11-07T19:14:13.930Z,70.60
2018-11-07T19:17:04.654Z,70.40
2018-11-07T19:19:50.257Z,70.40
2018-11-07T19:31:23.435Z,70.50
2018-11-07T19:33:55.807Z,70.20
2018-11-07T19:36:31.708Z,69.90
2018-11-07T19:39:12.429Z,69.90
2018-11-07T19:41:46.355Z,69.90
2018-11-07T19:44:20.787Z,69.80
2018-11-07T19:47:01.778Z,69.90
2018-11-07T19:49:40.551Z,69.90
2018-11-07T19:52:21.295Z,70.00
2018-11-07T19:54:56.155Z,70.30
2018-11-07T19:57:30.465Z,70.40
2018-11-07T20:00:09.697Z,70.50
2018-11-07T20:02:44.917Z,70.70
2018-11-07T20:05:19.367Z,70.60
2018-11-07T20:07:54.887Z,70.50
2018-11-07T20:10:29.359Z,70.30
2018-11-07T20:13:03.713Z,70.10
2018-11-07T20:15:38.084Z,70.00
2018-11-07T20:18:16.336Z,69.90
2018-11-07T20:20:54.270Z,69.90
2018-11-07T20:23:28.548Z,70.10
2018-11-07T20:26:03.709Z,70.10
2018-11-07T20:31:38.676Z,70.00
2018-11-07T20:34:07.287Z,70.40
2018-11-07T20:36:40.652Z,70.40
2018-11-07T20:39:10.968Z,70.60
2018-11-07T20:41:39.737Z,70.80
2018-11-07T20:44:09.112Z,70.80
2018-11-07T20:46:45.816Z,70.70
2018-11-07T20:49:14.628Z,70.50
2018-11-07T20:51:46.453Z,70.20
2018-11-07T20:54:15.152Z,70.10
2018-11-07T20:56:43.830Z,70.10
2018-11-07T20:59:12.465Z,70.20
2018-11-07T21:01:42.101Z,70.00
2018-11-07T21:04:10.587Z,70.00
2018-11-07T21:06:39.790Z,69.80
2018-11-07T21:09:10.211Z,69.60
2018-11-07T21:11:38.745Z,69.60
2018-11-07T21:14:07.723Z,69.70
2018-11-07T21:16:36.243Z,69.80
2018-11-07T21:19:05.024Z,69.70
2018-11-07T21:21:33.755Z,69.70
2018-11-07T21:24:04.851Z,69.70
2018-11-07T21:26:33.361Z,69.60
2018-11-07T21:29:01.998Z,69.60
2018-11-07T21:31:30.462Z,69.60
2018-11-07T21:33:59.006Z,69.50
2018-11-07T21:45:28.110Z,70.00
2018-11-07T21:48:00.341Z,70.00
2018-11-07T21:50:28.863Z,69.90
2018-11-07T21:53:05.093Z,69.90
2018-11-07T21:55:33.629Z,69.90
2018-11-07T21:58:06.212Z,70.20
2018-11-07T22:00:35.054Z,70.30
2018-11-07T22:03:03.549Z,70.50
2018-11-07T22:20:08.910Z,70.50
2018-11-07T22:22:37.826Z,70.40
2018-11-07T22:25:07.095Z,70.50
2018-11-07T22:27:35.601Z,71.10
2018-11-07T22:30:08.365Z,70.50
2018-11-07T22:32:37.261Z,70.40
2018-11-07T22:35:11.041Z,70.40
2018-11-07T22:37:40.023Z,70.40
2018-11-07T22:40:10.364Z,70.40
2018-11-07T22:42:38.789Z,70.50
2018-11-07T22:45:07.709Z,70.60
2018-11-07T22:47:36.486Z,70.70
2018-11-07T22:50:05.407Z,70.80
2018-11-07T22:52:33.921Z,70.80
2018-11-07T22:55:02.416Z,70.70
2018-11-07T22:57:30.863Z,70.70
2018-11-07T23:00:13.415Z,70.80
2018-11-07T23:02:41.904Z,70.90
2018-11-07T23:05:10.460Z,70.80
2018-11-07T23:07:38.960Z,70.80
2018-11-07T23:10:07.786Z,70.90
2018-11-07T23:27:07.455Z,70.90
2018-11-07T23:29:36.084Z,70.90
2018-11-07T23:32:04.590Z,70.90
2018-11-07T23:34:36.598Z,70.80
2018-11-07T23:37:05.041Z,70.90
2018-11-07T23:39:34.602Z,70.70
2018-11-07T23:42:03.204Z,70.40
2018-11-07T23:56:10.519Z,70.20
2018-11-07T23:58:38.996Z,70.20
